Weather at Hinton/Jasper-Hinton Airport

Public forecast

Using degrees Celsius for public forecast. Weather courtesy of forecast.io.

Closest aviation weather report (METAR) to Hinton/Jasper-Hinton Airport

Closest report is Edson Airport, 48.6 nm (90.0 km) ENE. Retrieved 2020/10/21 12:42 UTC (14 minutes ago):

CYET 211242Z AUTO 36006KT 3SM -SN FEW021 OVC029 M04/M05 A3005 RMK SLP223

Closest aviation forecast (TAF) to Hinton/Jasper-Hinton Airport

Forecast is more than 12 hours old.

Closest forecast is Whitecourt Airport, 85.6 nm (158.5 km) NE. Retrieved 2020/10/20 19:00 UTC (18 hours ago):

TAF CYZU 201838Z 2019/2023 VRB03KT P6SM BKN050 TEMPO 2019/2023 2SM -SHSN BR OVC020 BECMG 2020/2022 30008KT RMK NXT FCST WILL BE ISSUED AT 211415Z